createdAt,value
2019-04-06T00:01:20.562Z,13.22
2019-04-06T00:03:52.034Z,13.73
2019-04-06T00:06:20.787Z,15.00
2019-04-06T00:08:49.953Z,13.83
2019-04-06T00:11:19.306Z,15.23
2019-04-06T00:13:48.520Z,14.57
2019-04-06T00:16:17.705Z,14.43
2019-04-06T00:18:47.004Z,14.67
2019-04-06T00:21:16.740Z,15.13
2019-04-06T00:23:45.900Z,13.80
2019-04-06T00:26:15.117Z,14.27
2019-04-06T00:28:44.507Z,14.10
2019-04-06T00:31:31.936Z,14.53
2019-04-06T00:34:01.477Z,14.33
2019-04-06T00:36:30.735Z,14.53
2019-04-06T00:38:59.936Z,14.47
2019-04-06T00:41:29.125Z,15.53
2019-04-06T00:43:58.389Z,14.43
2019-04-06T00:46:27.673Z,14.03
2019-04-06T00:48:56.934Z,14.80
2019-04-06T00:51:26.203Z,15.17
2019-04-06T00:53:55.453Z,14.97
2019-04-06T00:56:24.757Z,16.37
2019-04-06T00:58:53.986Z,14.53
2019-04-06T01:01:23.493Z,14.87
2019-04-06T01:03:52.859Z,15.27
2019-04-06T01:06:22.108Z,15.55
2019-04-06T01:08:51.329Z,16.07
2019-04-06T01:11:20.899Z,16.60
2019-04-06T01:13:50.177Z,16.52
2019-04-06T01:16:19.483Z,16.83
2019-04-06T01:18:48.733Z,16.60
2019-04-06T01:21:18.034Z,16.80
2019-04-06T01:23:47.299Z,17.52
2019-04-06T01:26:17.956Z,18.13
2019-04-06T01:28:47.277Z,18.10
2019-04-06T01:31:16.908Z,17.53
2019-04-06T01:33:46.204Z,19.03
2019-04-06T01:36:15.619Z,18.33
2019-04-06T01:38:44.819Z,19.10
2019-04-06T01:41:16.777Z,18.43
2019-04-06T01:43:46.093Z,18.45
2019-04-06T01:46:16.284Z,17.03
2019-04-06T01:48:45.853Z,17.60
2019-04-06T01:51:15.394Z,17.80
2019-04-06T01:53:44.728Z,16.57
2019-04-06T01:56:18.762Z,17.35
2019-04-06T01:58:44.994Z,18.33
2019-04-06T02:01:20.784Z,17.63
2019-04-06T02:03:50.484Z,17.32
2019-04-06T02:06:19.785Z,18.23
2019-04-06T02:08:49.123Z,17.02
2019-04-06T02:11:20.199Z,17.27
2019-04-06T02:13:49.813Z,16.60
2019-04-06T02:16:20.380Z,17.60
2019-04-06T02:18:49.727Z,16.73
2019-04-06T02:21:19.009Z,17.33
2019-04-06T02:23:49.069Z,16.48
2019-04-06T02:26:29.103Z,17.13
2019-04-06T02:28:49.276Z,16.67
2019-04-06T02:31:36.598Z,16.30
2019-04-06T02:34:35.659Z,17.20
2019-04-06T02:37:19.685Z,18.30
2019-04-06T02:40:11.320Z,16.63
2019-04-06T02:42:45.337Z,17.37
2019-04-06T02:45:14.649Z,17.43
2019-04-06T02:47:43.823Z,16.90
2019-04-06T02:50:13.521Z,17.25
2019-04-06T02:52:43.071Z,18.37
2019-04-06T02:55:12.679Z,17.13
2019-04-06T02:57:41.943Z,17.67
2019-04-06T03:00:11.638Z,18.40
2019-04-06T03:02:40.960Z,17.80
2019-04-06T03:05:10.351Z,17.90
2019-04-06T03:07:39.718Z,19.50
2019-04-06T03:10:09.568Z,18.80
2019-04-06T03:12:39.847Z,19.80
2019-04-06T03:15:11.335Z,18.50
2019-04-06T03:17:40.806Z,19.90
2019-04-06T03:20:10.583Z,21.07
2019-04-06T03:22:39.998Z,19.37
2019-04-06T03:25:10.096Z,20.57
2019-04-06T03:27:39.666Z,20.50
2019-04-06T03:30:11.382Z,20.93
2019-04-06T03:32:40.591Z,22.20
2019-04-06T03:35:09.968Z,23.52
2019-04-06T03:37:39.173Z,22.70
2019-04-06T03:40:08.617Z,22.75
2019-04-06T03:42:37.901Z,23.80
2019-04-06T03:45:08.825Z,23.23
2019-04-06T03:47:39.499Z,23.47
2019-04-06T03:50:09.163Z,25.90
2019-04-06T03:52:38.496Z,24.45
2019-04-06T03:55:08.780Z,24.70
2019-04-06T03:57:40.897Z,23.70
2019-04-06T04:00:10.551Z,24.13
2019-04-06T04:02:40.658Z,26.03
2019-04-06T04:05:09.874Z,24.77
2019-04-06T04:07:39.062Z,25.80
2019-04-06T04:10:08.483Z,25.23
2019-04-06T04:12:37.870Z,25.60
2019-04-06T04:15:07.695Z,25.93
2019-04-06T04:17:37.183Z,25.17
2019-04-06T04:20:06.805Z,26.50
2019-04-06T04:22:35.940Z,26.67
2019-04-06T04:25:05.032Z,27.37
2019-04-06T04:27:34.154Z,27.07
2019-04-06T04:30:03.371Z,27.40
2019-04-06T04:32:32.386Z,27.23
2019-04-06T04:35:01.632Z,26.77
2019-04-06T04:37:31.033Z,27.47
2019-04-06T04:40:00.441Z,26.00
2019-04-06T04:42:29.622Z,27.77
2019-04-06T04:44:58.762Z,27.67
2019-04-06T04:47:27.942Z,25.30
2019-04-06T04:49:57.089Z,26.68
2019-04-06T04:52:26.461Z,26.60
2019-04-06T04:54:55.642Z,28.77
2019-04-06T04:57:24.905Z,28.57
2019-04-06T04:59:54.239Z,27.80
2019-04-06T05:02:24.268Z,27.53
2019-04-06T05:04:53.373Z,25.97
2019-04-06T05:07:22.519Z,26.77
2019-04-06T05:09:51.723Z,26.67
2019-04-06T05:12:22.075Z,26.37
2019-04-06T05:14:58.097Z,28.00
2019-04-06T05:17:28.885Z,26.80
2019-04-06T05:19:58.057Z,25.60
2019-04-06T05:22:27.241Z,27.57
2019-04-06T05:24:56.547Z,26.33
2019-04-06T05:27:26.035Z,26.47
2019-04-06T05:29:55.313Z,26.53
2019-04-06T05:32:25.700Z,27.17
2019-04-06T05:34:54.874Z,28.07
2019-04-06T05:37:24.093Z,25.80
2019-04-06T05:39:53.376Z,27.53
2019-04-06T05:42:22.496Z,26.57
2019-04-06T05:44:51.903Z,27.22
2019-04-06T05:47:21.242Z,27.73
2019-04-06T05:49:50.884Z,25.60
2019-04-06T05:52:20.026Z,27.32
2019-04-06T05:54:49.274Z,26.63
2019-04-06T05:57:18.593Z,27.82
2019-04-06T05:59:47.667Z,27.73
2019-04-06T06:02:18.194Z,29.33
2019-04-06T06:04:47.795Z,28.93
2019-04-06T06:07:17.430Z,26.75
2019-04-06T06:09:48.755Z,27.90
2019-04-06T06:12:26.032Z,27.25
2019-04-06T06:14:55.418Z,27.70
2019-04-06T06:17:25.136Z,28.70
2019-04-06T06:20:17.619Z,26.70
2019-04-06T06:22:47.299Z,27.95
2019-04-06T06:25:16.692Z,26.65
2019-04-06T06:27:46.278Z,27.48
2019-04-06T06:30:15.929Z,27.93
2019-04-06T06:32:45.889Z,27.17
2019-04-06T06:35:15.118Z,27.50
2019-04-06T06:37:44.525Z,25.97
2019-04-06T06:40:15.479Z,30.30
2019-04-06T06:42:45.049Z,26.93
2019-04-06T06:45:14.454Z,27.93
2019-04-06T06:47:44.304Z,28.87
2019-04-06T06:50:14.205Z,27.45
2019-04-06T06:52:43.566Z,28.57
2019-04-06T06:55:13.200Z,27.95
2019-04-06T06:57:46.961Z,28.27
2019-04-06T07:00:16.063Z,26.73
2019-04-06T07:02:45.281Z,26.27
2019-04-06T07:05:14.354Z,28.93
2019-04-06T07:07:43.674Z,28.45
2019-04-06T07:10:14.295Z,27.87
2019-04-06T07:12:43.619Z,28.90
2019-04-06T07:15:14.470Z,28.03
2019-04-06T07:17:46.886Z,27.77
2019-04-06T07:20:16.529Z,26.77
2019-04-06T07:22:46.065Z,29.70
2019-04-06T07:25:15.444Z,28.80
2019-04-06T07:27:44.674Z,29.40
2019-04-06T07:30:14.611Z,29.48
2019-04-06T07:32:44.819Z,30.63
2019-04-06T07:35:16.571Z,29.37
2019-04-06T07:37:46.077Z,29.53
2019-04-06T07:40:17.763Z,30.20
2019-04-06T07:42:47.000Z,30.87
2019-04-06T07:45:16.187Z,30.10
2019-04-06T07:47:45.383Z,30.83
2019-04-06T07:50:14.990Z,29.90
2019-04-06T07:52:44.319Z,30.48
2019-04-06T07:55:13.491Z,31.40
2019-04-06T07:57:42.717Z,28.83
2019-04-06T08:00:12.201Z,29.80
2019-04-06T08:02:41.453Z,29.43
2019-04-06T08:05:10.710Z,29.20
2019-04-06T08:07:39.892Z,28.97
2019-04-06T08:10:09.751Z,29.60
2019-04-06T08:12:38.865Z,30.80
2019-04-06T08:15:07.976Z,29.53
2019-04-06T08:17:37.145Z,28.90
2019-04-06T08:20:07.338Z,32.37
2019-04-06T08:22:36.528Z,30.07
2019-04-06T08:25:06.935Z,29.27
2019-04-06T08:27:37.020Z,30.40
2019-04-06T08:30:06.830Z,29.77
2019-04-06T08:32:35.938Z,30.30
2019-04-06T08:35:05.228Z,28.17
2019-04-06T08:37:34.370Z,28.23
2019-04-06T08:40:03.653Z,28.27
2019-04-06T08:42:32.951Z,28.77
2019-04-06T08:45:01.894Z,28.40
2019-04-06T08:47:31.522Z,29.20
2019-04-06T08:50:00.647Z,28.00
2019-04-06T08:52:30.276Z,27.17
2019-04-06T08:54:59.619Z,28.50
2019-04-06T08:57:29.320Z,25.90
2019-04-06T08:59:59.178Z,26.67
2019-04-06T09:02:29.101Z,28.23
2019-04-06T09:04:58.466Z,27.75
2019-04-06T09:07:27.427Z,27.85
2019-04-06T09:09:56.504Z,28.42
2019-04-06T09:12:26.729Z,26.23
2019-04-06T09:14:55.939Z,27.15
2019-04-06T09:17:25.016Z,27.90
2019-04-06T09:19:54.145Z,28.95
2019-04-06T09:22:23.183Z,28.85
2019-04-06T09:24:52.909Z,28.50
2019-04-06T09:27:22.175Z,27.48
2019-04-06T09:29:51.233Z,27.55
2019-04-06T09:32:21.190Z,27.85
2019-04-06T09:34:50.471Z,29.82
2019-04-06T09:37:38.989Z,29.50
2019-04-06T09:40:08.249Z,29.32
2019-04-06T09:42:37.278Z,28.15
2019-04-06T09:45:21.024Z,29.42
2019-04-06T09:48:07.967Z,28.98
2019-04-06T09:50:52.893Z,29.83
2019-04-06T09:53:44.720Z,29.07
2019-04-06T09:56:23.240Z,30.62
2019-04-06T09:59:18.027Z,30.17
2019-04-06T10:02:04.009Z,31.87
2019-04-06T10:04:51.197Z,30.77
2019-04-06T10:07:31.178Z,30.40
2019-04-06T10:10:19.393Z,32.07
2019-04-06T10:13:07.681Z,32.30
2019-04-06T10:15:49.503Z,33.83
2019-04-06T10:18:46.769Z,31.85
2019-04-06T10:21:35.340Z,33.20
2019-04-06T10:24:29.690Z,32.63
2019-04-06T10:27:15.539Z,34.67
2019-04-06T10:30:06.677Z,35.03
2019-04-06T10:32:54.813Z,34.83
2019-04-06T10:35:49.025Z,35.80
2019-04-06T10:38:35.773Z,34.30
2019-04-06T10:41:19.706Z,36.13
2019-04-06T10:44:15.082Z,35.50
2019-04-06T10:47:02.277Z,36.83
2019-04-06T10:49:51.626Z,35.43
2019-04-06T10:52:37.530Z,32.95
2019-04-06T10:55:25.033Z,33.55
2019-04-06T10:58:13.246Z,32.40
2019-04-06T11:01:09.547Z,31.62
2019-04-06T11:03:50.602Z,35.88
2019-04-06T11:06:26.349Z,35.30
2019-04-06T11:09:03.213Z,35.63
2019-04-06T11:11:54.135Z,36.33
2019-04-06T11:14:41.138Z,35.38
2019-04-06T11:17:19.253Z,35.17
2019-04-06T11:19:59.598Z,33.58
2019-04-06T11:22:38.334Z,35.92
2019-04-06T11:25:19.646Z,36.50
2019-04-06T11:28:17.170Z,34.45
2019-04-06T11:31:05.898Z,34.60
2019-04-06T11:33:53.478Z,34.88
2019-04-06T11:36:37.986Z,34.10
2019-04-06T11:39:34.154Z,34.35
2019-04-06T11:42:25.401Z,32.83
2019-04-06T11:45:03.444Z,33.10
2019-04-06T11:47:57.494Z,31.42
2019-04-06T11:51:03.917Z,31.00
2019-04-06T11:53:53.372Z,31.80
2019-04-06T11:56:49.275Z,31.95
2019-04-06T11:59:39.518Z,30.25
2019-04-06T12:02:30.798Z,28.50
2019-04-06T12:05:25.125Z,27.48
2019-04-06T12:08:17.034Z,29.65
2019-04-06T12:10:52.802Z,28.87
2019-04-06T12:13:32.095Z,30.20
2019-04-06T12:16:29.292Z,28.62
2019-04-06T12:19:16.581Z,29.48
2019-04-06T12:22:03.466Z,28.90
2019-04-06T12:25:04.211Z,28.07
2019-04-06T12:27:51.891Z,27.98
2019-04-06T12:30:36.605Z,29.75
2019-04-06T12:33:19.246Z,26.77
2019-04-06T12:36:22.724Z,30.02
2019-04-06T12:39:00.654Z,29.75
2019-04-06T12:41:47.447Z,30.82
2019-04-06T12:44:38.517Z,28.70
2019-04-06T12:47:25.815Z,28.17
2019-04-06T12:50:15.659Z,28.70
2019-04-06T12:53:02.796Z,29.15
2019-04-06T12:55:56.602Z,28.05
2019-04-06T12:58:36.767Z,29.65
2019-04-06T13:01:31.449Z,28.50
2019-04-06T13:04:38.508Z,30.23
2019-04-06T13:07:25.814Z,29.48
2019-04-06T13:10:16.939Z,30.32
2019-04-06T13:13:11.245Z,29.25
2019-04-06T13:15:55.183Z,30.20
2019-04-06T13:18:45.287Z,28.73
2019-04-06T13:21:36.560Z,29.30
2019-04-06T13:24:30.690Z,27.25
2019-04-06T13:27:15.518Z,26.87
2019-04-06T13:30:02.246Z,28.65
2019-04-06T13:32:49.598Z,27.95
2019-04-06T13:35:35.111Z,29.10
2019-04-06T13:38:22.160Z,30.30
2019-04-06T13:41:09.578Z,26.82
2019-04-06T13:44:10.303Z,29.92
2019-04-06T13:46:57.427Z,29.37
2019-04-06T13:49:45.697Z,29.18
2019-04-06T13:52:23.265Z,28.67
2019-04-06T13:55:02.191Z,29.35
2019-04-06T13:57:36.134Z,30.00
2019-04-06T14:00:44.470Z,29.75
2019-04-06T14:03:21.406Z,28.57
2019-04-06T14:06:08.620Z,28.85
2019-04-06T14:08:54.063Z,28.52
2019-04-06T14:11:41.115Z,28.35
2019-04-06T14:14:29.924Z,27.75
2019-04-06T14:17:18.287Z,27.77
2019-04-06T14:20:11.961Z,26.80
2019-04-06T14:23:03.248Z,27.10
2019-04-06T14:26:01.328Z,27.07
2019-04-06T14:28:52.898Z,28.02
2019-04-06T14:31:53.395Z,27.45
2019-04-06T14:34:41.446Z,27.40
2019-04-06T14:37:36.252Z,28.07
2019-04-06T14:40:38.207Z,27.82
2019-04-06T14:43:26.793Z,32.03
2019-04-06T14:46:06.582Z,33.85
2019-04-06T14:49:13.672Z,33.65
2019-04-06T14:51:54.993Z,33.58
2019-04-06T14:54:31.502Z,32.73
2019-04-06T14:57:12.865Z,31.52
2019-04-06T15:00:06.699Z,33.23
2019-04-06T15:02:53.562Z,31.00
2019-04-06T15:05:57.257Z,31.57
2019-04-06T15:08:44.396Z,30.45
2019-04-06T15:11:31.434Z,29.87
2019-04-06T15:14:09.793Z,30.92
2019-04-06T15:16:52.697Z,31.23
2019-04-06T15:19:33.081Z,30.10
2019-04-06T15:22:20.488Z,31.23
2019-04-06T15:25:08.752Z,30.80
2019-04-06T15:28:02.936Z,32.93
2019-04-06T15:30:47.468Z,31.65
2019-04-06T15:33:44.816Z,31.48
2019-04-06T15:36:20.076Z,29.60
2019-04-06T15:39:07.701Z,30.68
2019-04-06T15:41:59.419Z,29.85
2019-04-06T15:44:48.406Z,29.30
2019-04-06T15:47:36.461Z,30.48
2019-04-06T15:50:14.035Z,31.50
2019-04-06T15:53:14.326Z,30.17
2019-04-06T15:55:49.935Z,31.45
2019-04-06T15:58:47.051Z,31.15
2019-04-06T16:01:41.026Z,32.08
2019-04-06T16:04:38.471Z,28.80
2019-04-06T16:07:33.202Z,29.72
2019-04-06T16:10:28.827Z,27.85
2019-04-06T16:13:23.814Z,28.25
2019-04-06T16:16:04.613Z,28.05
2019-04-06T16:18:56.258Z,27.77
2019-04-06T16:21:53.482Z,27.27
2019-04-06T16:24:30.618Z,27.60
2019-04-06T16:27:19.109Z,26.62
2019-04-06T16:30:11.193Z,27.30
2019-04-06T16:33:08.953Z,26.30
2019-04-06T16:35:54.612Z,26.93
2019-04-06T16:38:43.099Z,27.22
2019-04-06T16:41:31.362Z,26.93
2019-04-06T16:44:24.777Z,26.40
2019-04-06T16:47:02.472Z,26.30
2019-04-06T16:49:52.849Z,27.05
2019-04-06T16:52:47.099Z,28.00
2019-04-06T16:55:30.128Z,27.37
2019-04-06T16:58:30.972Z,28.83
2019-04-06T17:01:18.375Z,28.07
2019-04-06T17:03:54.346Z,27.77
2019-04-06T17:06:39.164Z,28.83
2019-04-06T17:09:17.691Z,29.92
2019-04-06T17:12:03.924Z,30.68
2019-04-06T17:15:04.099Z,32.03
2019-04-06T17:17:51.408Z,29.70
2019-04-06T17:20:39.759Z,30.52
2019-04-06T17:23:40.766Z,30.70
2019-04-06T17:26:38.025Z,31.27
2019-04-06T17:29:26.348Z,31.97
2019-04-06T17:32:07.450Z,33.30
2019-04-06T17:34:56.661Z,31.37
2019-04-06T17:37:48.451Z,32.63
2019-04-06T17:40:33.798Z,31.68
2019-04-06T17:43:27.446Z,32.05
2019-04-06T17:46:18.457Z,32.33
2019-04-06T17:48:58.854Z,34.30
2019-04-06T17:51:47.893Z,34.00
2019-04-06T17:54:33.712Z,35.33
2019-04-06T17:57:34.273Z,35.20
2019-04-06T18:00:21.708Z,37.45
2019-04-06T18:03:10.289Z,38.13
2019-04-06T18:05:57.333Z,37.53
2019-04-06T18:08:58.021Z,38.70
2019-04-06T18:11:32.699Z,40.43
2019-04-06T18:14:02.044Z,39.08
2019-04-06T18:16:36.438Z,42.62
2019-04-06T18:19:06.219Z,40.60
2019-04-06T18:21:35.315Z,41.10
2019-04-06T18:24:04.461Z,43.95
2019-04-06T18:26:33.541Z,41.73
2019-04-06T18:29:02.813Z,41.33
2019-04-06T18:31:54.090Z,42.67
2019-04-06T18:34:23.889Z,42.50
2019-04-06T18:36:59.450Z,42.83
2019-04-06T18:39:31.265Z,42.90
2019-04-06T18:42:00.823Z,41.63
2019-04-06T18:44:30.985Z,41.05
2019-04-06T18:47:00.263Z,41.02
2019-04-06T18:49:29.545Z,41.15
2019-04-06T18:51:58.881Z,43.00
2019-04-06T18:54:47.121Z,44.25
2019-04-06T18:57:16.343Z,42.45
2019-04-06T18:59:45.394Z,43.90
2019-04-06T19:02:14.759Z,43.63
2019-04-06T19:04:44.051Z,43.50
2019-04-06T19:07:32.627Z,44.18
2019-04-06T19:10:01.908Z,44.83
2019-04-06T19:12:31.336Z,45.30
2019-04-06T19:15:00.663Z,46.70
2019-04-06T19:17:29.718Z,44.23
2019-04-06T19:19:58.810Z,44.85
2019-04-06T19:22:28.376Z,45.65
2019-04-06T19:24:57.778Z,44.55
2019-04-06T19:27:29.654Z,45.30
2019-04-06T19:29:59.582Z,45.38
2019-04-06T19:32:28.822Z,47.05
2019-04-06T19:35:01.194Z,44.77
2019-04-06T19:37:31.706Z,46.77
2019-04-06T19:40:01.467Z,45.65
2019-04-06T19:42:31.131Z,47.80
2019-04-06T19:45:00.311Z,45.75
2019-04-06T19:47:29.390Z,46.68
2019-04-06T19:49:58.695Z,45.98
2019-04-06T19:52:28.302Z,46.45
2019-04-06T19:54:58.499Z,45.78
2019-04-06T19:57:27.582Z,46.40
2019-04-06T19:59:56.667Z,45.43
2019-04-06T20:02:25.955Z,46.80
2019-04-06T20:04:56.341Z,46.10
2019-04-06T20:07:25.862Z,48.15
2019-04-06T20:09:55.682Z,49.80
2019-04-06T20:12:25.345Z,50.08
2019-04-06T20:14:54.361Z,48.85
2019-04-06T20:17:23.419Z,47.75
2019-04-06T20:19:52.577Z,46.70
2019-04-06T20:22:21.703Z,47.48
2019-04-06T20:24:51.025Z,48.33
2019-04-06T20:27:20.143Z,47.88
2019-04-06T20:29:49.733Z,48.05
2019-04-06T20:32:19.009Z,45.92
2019-04-06T20:34:48.197Z,46.85
2019-04-06T20:37:17.197Z,44.10
2019-04-06T20:39:46.455Z,46.45
2019-04-06T20:42:15.781Z,45.75
2019-04-06T20:44:46.177Z,44.73
2019-04-06T20:47:15.347Z,46.33
2019-04-06T20:49:44.354Z,46.00
2019-04-06T20:52:13.589Z,45.83
2019-04-06T20:54:43.196Z,45.85
2019-04-06T20:57:12.733Z,47.53
2019-04-06T20:59:41.922Z,45.63
2019-04-06T21:02:10.958Z,48.13
2019-04-06T21:04:39.980Z,46.85
2019-04-06T21:07:09.492Z,44.77
2019-04-06T21:09:39.376Z,44.95
2019-04-06T21:12:08.627Z,46.15
2019-04-06T21:14:38.141Z,46.15
2019-04-06T21:17:07.733Z,48.83
2019-04-06T21:19:37.773Z,49.42
2019-04-06T21:22:07.022Z,46.30
2019-04-06T21:24:36.134Z,46.45
2019-04-06T21:27:24.890Z,45.78
2019-04-06T21:29:54.361Z,45.65
2019-04-06T21:32:23.480Z,47.98
2019-04-06T21:34:52.745Z,47.15
2019-04-06T21:37:22.042Z,49.95
2019-04-06T21:39:52.535Z,49.40
2019-04-06T21:42:22.625Z,48.80
2019-04-06T21:44:53.595Z,47.43
2019-04-06T21:47:23.116Z,48.65
2019-04-06T21:49:52.869Z,46.75
2019-04-06T21:52:22.625Z,46.33
2019-04-06T21:54:51.971Z,46.90
2019-04-06T21:57:21.811Z,45.08
2019-04-06T21:59:51.519Z,47.05
2019-04-06T22:02:21.608Z,47.43
2019-04-06T22:04:50.940Z,47.62
2019-04-06T22:07:20.104Z,47.60
2019-04-06T22:09:49.356Z,48.48
2019-04-06T22:12:18.870Z,48.08
2019-04-06T22:14:49.039Z,49.10
2019-04-06T22:17:18.676Z,48.45
2019-04-06T22:19:48.247Z,47.88
2019-04-06T22:22:17.960Z,47.90
2019-04-06T22:24:47.292Z,48.05
2019-04-06T22:27:16.617Z,49.48
2019-04-06T22:29:45.776Z,48.68
2019-04-06T22:32:15.303Z,47.45
2019-04-06T22:34:44.445Z,47.70
2019-04-06T22:37:14.002Z,47.85
2019-04-06T22:39:43.271Z,48.63
2019-04-06T22:42:12.705Z,47.88
2019-04-06T22:44:41.732Z,49.90
2019-04-06T22:47:10.972Z,51.68
2019-04-06T22:49:40.173Z,48.13
2019-04-06T22:52:09.421Z,50.33
2019-04-06T22:54:38.784Z,50.38
2019-04-06T22:57:08.155Z,51.37
2019-04-06T22:59:37.185Z,51.83
2019-04-06T23:02:06.636Z,52.58
2019-04-06T23:04:48.613Z,53.73
2019-04-06T23:07:17.760Z,53.95
2019-04-06T23:09:47.400Z,51.40
2019-04-06T23:12:17.708Z,53.35
2019-04-06T23:14:49.013Z,52.40
2019-04-06T23:17:20.394Z,52.45
2019-04-06T23:19:49.689Z,50.23
2019-04-06T23:22:19.740Z,53.00
2019-04-06T23:24:49.145Z,51.18
2019-04-06T23:27:20.482Z,52.08
2019-04-06T23:29:51.680Z,51.48
2019-04-06T23:32:26.623Z,50.88
2019-04-06T23:35:00.756Z,54.00
2019-04-06T23:37:27.933Z,53.70
2019-04-06T23:39:57.215Z,50.88
2019-04-06T23:42:26.425Z,52.05
2019-04-06T23:44:55.785Z,51.83
2019-04-06T23:47:25.624Z,54.18
2019-04-06T23:49:55.025Z,51.53
2019-04-06T23:52:25.306Z,53.70
2019-04-06T23:54:54.445Z,54.95
2019-04-06T23:57:23.820Z,54.20
2019-04-06T23:59:53.039Z,52.43
